createdAt,value
2019-04-10T00:00:04.280Z,11.51
2019-04-10T00:00:09.393Z,11.51
2019-04-10T00:00:15.478Z,11.51
2019-04-10T00:00:21.744Z,11.51
2019-04-10T00:00:27.131Z,11.51
2019-04-10T00:00:32.922Z,11.51
2019-04-10T00:00:39.884Z,11.51
2019-04-10T00:00:48.631Z,11.51
2019-04-10T00:00:55.848Z,11.51
2019-04-10T00:01:01.435Z,11.52
2019-04-10T00:01:13.635Z,11.51
2019-04-10T00:01:21.500Z,11.52
2019-04-10T00:01:27.793Z,11.52
2019-04-10T00:01:34.859Z,11.52
2019-04-10T00:01:41.331Z,11.52
2019-04-10T00:01:46.872Z,11.51
2019-04-10T00:01:53.077Z,11.51
2019-04-10T00:02:00.089Z,11.51
2019-04-10T00:02:05.706Z,11.51
2019-04-10T00:02:11.957Z,11.51
2019-04-10T00:02:18.274Z,11.5
2019-04-10T00:02:24.564Z,11.51
2019-04-10T00:02:31.309Z,11.51
2019-04-10T00:02:36.311Z,11.51
2019-04-10T00:02:42.490Z,11.5
2019-04-10T00:02:48.793Z,11.5
2019-04-10T00:02:54.341Z,11.5
2019-04-10T00:03:00.001Z,11.5
2019-04-10T00:03:06.950Z,11.51
2019-04-10T00:03:43.898Z,11.5
2019-04-10T00:03:50.939Z,11.51
2019-04-10T00:03:56.741Z,11.51
2019-04-10T00:04:03.664Z,11.51
2019-04-10T00:04:10.449Z,11.51
2019-04-10T00:04:16.152Z,11.49
2019-04-10T00:04:21.836Z,11.5
2019-04-10T00:04:29.581Z,11.49
2019-04-10T00:04:36.942Z,11.5
2019-04-10T00:04:41.959Z,11.5
2019-04-10T00:04:48.151Z,11.51
2019-04-10T00:04:54.365Z,11.5
2019-04-10T00:05:01.226Z,11.51
2019-04-10T00:05:06.284Z,11.5
2019-04-10T00:05:12.494Z,11.5
2019-04-10T00:05:18.702Z,11.5
2019-04-10T00:05:24.295Z,11.5
2019-04-10T00:05:29.936Z,11.5
2019-04-10T00:05:36.167Z,11.5
2019-04-10T00:05:45.201Z,11.5
2019-04-10T00:05:52.812Z,11.5
2019-04-10T00:05:59.106Z,11.5
2019-04-10T00:06:06.721Z,11.5
2019-04-10T00:06:17.863Z,11.5
2019-04-10T00:06:24.439Z,11.5
2019-04-10T00:06:30.603Z,11.48
2019-04-10T00:06:37.483Z,11.49
2019-04-10T00:06:43.154Z,11.49
2019-04-10T00:06:48.807Z,11.48
2019-04-10T00:07:08.293Z,11.49
2019-04-10T00:07:25.654Z,11.48
2019-04-10T00:07:31.227Z,11.48
2019-04-10T00:07:36.158Z,11.47
2019-04-10T00:07:42.462Z,11.48
2019-04-10T00:07:50.005Z,11.48
2019-04-10T00:07:56.244Z,11.47
2019-04-10T00:08:01.834Z,11.47
2019-04-10T00:08:08.922Z,11.49
2019-04-10T00:08:15.054Z,11.47
2019-04-10T00:08:20.583Z,11.48
2019-04-10T00:08:26.149Z,11.47
2019-04-10T00:08:32.445Z,11.47
2019-04-10T00:08:38.620Z,11.48
2019-04-10T00:08:44.840Z,11.47
2019-04-10T00:08:50.551Z,11.48
2019-04-10T00:08:57.532Z,11.47
2019-04-10T00:09:03.733Z,11.47
2019-04-10T00:09:09.224Z,11.47
2019-04-10T00:09:14.767Z,11.46
2019-04-10T00:09:21.032Z,11.46
2019-04-10T00:09:27.348Z,11.47
2019-04-10T00:09:32.834Z,11.46
2019-04-10T00:09:37.857Z,11.46
2019-04-10T00:09:44.120Z,11.46
2019-04-10T00:09:50.299Z,11.45
2019-04-10T00:09:55.867Z,11.46
2019-04-10T00:10:02.246Z,11.46
2019-04-10T00:10:08.488Z,11.45
2019-04-10T00:10:14.635Z,11.45
2019-04-10T00:10:20.135Z,11.45
2019-04-10T00:10:25.824Z,11.45
2019-04-10T00:10:31.961Z,11.45
2019-04-10T00:10:38.974Z,11.45
2019-04-10T00:10:44.550Z,11.45
2019-04-10T00:10:50.166Z,11.44
2019-04-10T00:10:57.009Z,11.45
2019-04-10T00:11:05.432Z,11.44
2019-04-10T00:11:12.182Z,11.45
2019-04-10T00:11:17.331Z,11.44
2019-04-10T00:11:23.556Z,11.43
2019-04-10T00:11:30.431Z,11.44
2019-04-10T00:11:36.664Z,11.44
2019-04-10T00:11:41.722Z,11.43
2019-04-10T00:11:49.320Z,11.44
2019-04-10T00:11:54.881Z,11.44
2019-04-10T00:12:00.985Z,11.43
2019-04-10T00:12:06.087Z,11.43
2019-04-10T00:12:12.395Z,11.43
2019-04-10T00:12:18.443Z,11.42
2019-04-10T00:12:24.086Z,11.43
2019-04-10T00:12:29.656Z,11.42
2019-04-10T00:12:35.958Z,11.42
2019-04-10T00:12:43.806Z,11.42
2019-04-10T00:12:50.500Z,11.43
2019-04-10T00:12:56.129Z,11.42
2019-04-10T00:13:03.146Z,11.42
2019-04-10T00:13:09.998Z,11.42
2019-04-10T00:13:15.713Z,11.42
2019-04-10T00:13:21.314Z,11.42
2019-04-10T00:13:27.537Z,11.42
2019-04-10T00:13:33.149Z,11.41
2019-04-10T00:13:39.288Z,11.41
2019-04-10T00:13:45.632Z,11.41
2019-04-10T00:13:51.885Z,11.41
2019-04-10T00:13:58.664Z,11.41
2019-04-10T00:14:04.455Z,11.4
2019-04-10T00:14:10.979Z,11.41
2019-04-10T00:14:17.169Z,11.4
2019-04-10T00:14:22.720Z,11.4
2019-04-10T00:14:29.011Z,11.39
2019-04-10T00:14:34.515Z,11.4
2019-04-10T00:14:40.762Z,11.39
2019-04-10T00:14:46.500Z,11.39
2019-04-10T00:14:53.283Z,11.39
2019-04-10T00:14:58.814Z,11.39
2019-04-10T00:15:05.077Z,11.38
2019-04-10T00:15:10.766Z,11.38
2019-04-10T00:15:20.293Z,11.38
2019-04-10T00:15:28.409Z,11.37
2019-04-10T00:15:35.482Z,11.37
2019-04-10T00:15:43.006Z,11.37
2019-04-10T00:15:48.694Z,11.36
2019-04-10T00:15:57.016Z,11.36
2019-04-10T00:16:03.546Z,11.37
2019-04-10T00:16:09.848Z,11.36
2019-04-10T00:16:15.964Z,11.36
2019-04-10T00:16:24.361Z,11.36
2019-04-10T00:16:30.624Z,11.36
2019-04-10T00:16:36.152Z,11.36
2019-04-10T00:16:43.198Z,11.35
2019-04-10T00:16:49.615Z,11.36
2019-04-10T00:16:57.143Z,11.36
2019-04-10T00:17:02.701Z,11.35
2019-04-10T00:17:09.678Z,11.36
2019-04-10T00:17:16.545Z,11.35
2019-04-10T00:17:22.244Z,11.36
2019-04-10T00:17:27.735Z,11.35
2019-04-10T00:17:35.393Z,11.35
2019-04-10T00:17:41.637Z,11.35
2019-04-10T00:17:47.247Z,11.34
2019-04-10T00:17:54.241Z,11.35
2019-04-10T00:18:00.599Z,11.35
2019-04-10T00:18:07.387Z,11.35
2019-04-10T00:18:12.265Z,11.35
2019-04-10T00:18:20.710Z,11.34
2019-04-10T00:18:27.811Z,11.34
2019-04-10T00:18:34.540Z,11.35
2019-04-10T00:18:40.075Z,11.35
2019-04-10T00:18:46.340Z,11.34
2019-04-10T00:18:52.040Z,11.34
2019-04-10T00:18:58.893Z,11.34
2019-04-10T00:19:04.479Z,11.34
2019-04-10T00:19:11.352Z,11.34
2019-04-10T00:19:17.049Z,11.34
2019-04-10T00:19:23.192Z,11.35
2019-04-10T00:19:28.692Z,11.34
2019-04-10T00:19:35.713Z,11.34
2019-04-10T00:19:41.529Z,11.34
2019-04-10T00:19:48.451Z,11.33
2019-04-10T00:19:53.999Z,11.34
2019-04-10T00:20:00.107Z,11.34
2019-04-10T00:20:05.826Z,11.33
2019-04-10T00:20:11.934Z,11.33
2019-04-10T00:20:17.048Z,11.33
2019-04-10T00:20:23.271Z,11.33
2019-04-10T00:20:29.604Z,11.33
2019-04-10T00:20:37.195Z,11.34
2019-04-10T00:20:42.691Z,11.34
2019-04-10T00:20:51.020Z,11.34
2019-04-10T00:20:57.393Z,11.33
2019-04-10T00:21:03.249Z,11.33
2019-04-10T00:21:09.877Z,11.33
2019-04-10T00:21:18.214Z,11.33
2019-04-10T00:21:25.169Z,11.33
2019-04-10T00:21:31.323Z,11.33
2019-04-10T00:21:37.595Z,11.33
2019-04-10T00:21:43.207Z,11.32
2019-04-10T00:21:49.396Z,11.32
2019-04-10T00:21:54.335Z,11.32
2019-04-10T00:22:00.543Z,11.32
2019-04-10T00:22:09.614Z,11.32
2019-04-10T00:22:15.678Z,11.32
2019-04-10T00:22:22.232Z,11.32
2019-04-10T00:22:28.449Z,11.31
2019-04-10T00:22:34.023Z,11.32
2019-04-10T00:22:39.664Z,11.32
2019-04-10T00:22:45.244Z,11.31
2019-04-10T00:22:51.400Z,11.31
2019-04-10T00:22:56.964Z,11.32
2019-04-10T00:23:03.274Z,11.32
2019-04-10T00:23:08.910Z,11.31
2019-04-10T00:23:15.863Z,11.31
2019-04-10T00:23:22.691Z,11.31
2019-04-10T00:23:28.284Z,11.31
2019-04-10T00:23:33.930Z,11.32
2019-04-10T00:23:40.219Z,11.31
2019-04-10T00:23:46.881Z,11.31
2019-04-10T00:23:52.798Z,11.3
2019-04-10T00:23:58.443Z,11.31
2019-04-10T00:24:05.980Z,11.31
2019-04-10T00:24:12.234Z,11.3
2019-04-10T00:24:17.780Z,11.31
2019-04-10T00:24:23.960Z,11.3
2019-04-10T00:24:30.210Z,11.3
2019-04-10T00:24:35.699Z,11.3
2019-04-10T00:24:41.382Z,11.3
2019-04-10T00:24:47.062Z,11.31
2019-04-10T00:24:53.226Z,11.3
2019-04-10T00:24:58.831Z,11.3
2019-04-10T00:25:05.744Z,11.3
2019-04-10T00:25:11.452Z,11.3
2019-04-10T00:25:18.899Z,11.31
2019-04-10T00:25:24.416Z,11.3
2019-04-10T00:25:30.079Z,11.29
2019-04-10T00:25:35.708Z,11.3
2019-04-10T00:25:43.406Z,11.3
2019-04-10T00:25:49.565Z,11.3
2019-04-10T00:25:55.270Z,11.31
2019-04-10T00:26:01.418Z,11.29
2019-04-10T00:26:09.897Z,11.29
2019-04-10T00:26:15.997Z,11.3
2019-04-10T00:26:21.626Z,11.3
2019-04-10T00:26:27.836Z,11.29
2019-04-10T00:26:34.034Z,11.3
2019-04-10T00:26:39.515Z,11.29
2019-04-10T00:26:44.603Z,11.29
2019-04-10T00:26:50.844Z,11.3
2019-04-10T00:26:57.173Z,11.29
2019-04-10T00:27:03.804Z,11.29
2019-04-10T00:27:09.058Z,11.3
2019-04-10T00:27:15.302Z,11.3
2019-04-10T00:27:21.512Z,11.29
2019-04-10T00:27:27.005Z,11.3
2019-04-10T00:27:32.651Z,11.3
2019-04-10T00:27:38.927Z,11.3
2019-04-10T00:27:45.804Z,11.3
2019-04-10T00:27:51.468Z,11.3
2019-04-10T00:27:57.071Z,11.29
2019-04-10T00:28:03.934Z,11.29
2019-04-10T00:28:12.265Z,11.3
2019-04-10T00:28:17.791Z,11.3
2019-04-10T00:28:23.379Z,11.3
2019-04-10T00:28:30.377Z,11.3
2019-04-10T00:28:37.338Z,11.3
2019-04-10T00:28:44.509Z,11.3
2019-04-10T00:28:50.516Z,11.3
2019-04-10T00:28:56.791Z,11.29
2019-04-10T00:29:03.534Z,11.29
2019-04-10T00:29:09.280Z,11.29
2019-04-10T00:29:14.881Z,11.29
2019-04-10T00:29:21.060Z,11.29
2019-04-10T00:29:27.909Z,11.29
2019-04-10T00:29:33.580Z,11.29
2019-04-10T00:29:39.136Z,11.3
2019-04-10T00:29:45.453Z,11.3
2019-04-10T00:29:50.992Z,11.31
2019-04-10T00:29:57.228Z,11.3
2019-04-10T00:30:02.890Z,11.29
2019-04-10T00:30:09.840Z,11.3
2019-04-10T00:30:15.294Z,11.3
2019-04-10T00:30:21.506Z,11.3
2019-04-10T00:30:27.083Z,11.29
2019-04-10T00:30:33.263Z,11.29
2019-04-10T00:30:39.081Z,11.29
2019-04-10T00:30:45.828Z,11.3
2019-04-10T00:30:51.545Z,11.29
2019-04-10T00:30:57.695Z,11.3
2019-04-10T00:31:03.432Z,11.29
2019-04-10T00:31:10.225Z,11.3
2019-04-10T00:31:15.741Z,11.3
2019-04-10T00:31:22.758Z,11.3
2019-04-10T00:31:30.478Z,11.3
2019-04-10T00:31:36.040Z,11.29
2019-04-10T00:31:42.262Z,11.3
2019-04-10T00:31:48.723Z,11.29
2019-04-10T00:31:54.957Z,11.3
2019-04-10T00:32:06.301Z,11.29
2019-04-10T00:32:12.695Z,11.3
2019-04-10T00:32:18.254Z,11.29
2019-04-10T00:32:24.815Z,11.3
2019-04-10T00:32:30.693Z,11.3
2019-04-10T00:32:36.990Z,11.3
2019-04-10T00:32:42.469Z,11.3
2019-04-10T00:32:48.842Z,11.3
2019-04-10T00:32:54.409Z,11.3
2019-04-10T00:33:01.307Z,11.3
2019-04-10T00:33:06.923Z,11.31
2019-04-10T00:33:13.047Z,11.3
2019-04-10T00:33:18.800Z,11.31
2019-04-10T00:33:25.721Z,11.3
2019-04-10T00:33:32.485Z,11.3
2019-04-10T00:33:38.431Z,11.31
2019-04-10T00:33:45.701Z,11.3
2019-04-10T00:33:52.155Z,11.31
2019-04-10T00:33:58.952Z,11.31
2019-04-10T00:34:04.002Z,11.31
2019-04-10T00:34:11.551Z,11.31
2019-04-10T00:34:17.752Z,11.31
2019-04-10T00:34:24.080Z,11.31
2019-04-10T00:34:29.655Z,11.31
2019-04-10T00:34:36.578Z,11.31
2019-04-10T00:34:42.807Z,11.31
2019-04-10T00:34:48.433Z,11.31
2019-04-10T00:34:54.004Z,11.31
2019-04-10T00:35:00.970Z,11.31
2019-04-10T00:35:07.995Z,11.31
2019-04-10T00:35:13.679Z,11.32
2019-04-10T00:35:19.264Z,11.31
2019-04-10T00:35:26.293Z,11.32
2019-04-10T00:35:33.193Z,11.31
2019-04-10T00:35:40.396Z,11.31
2019-04-10T00:35:47.695Z,11.31
2019-04-10T00:35:54.739Z,11.31
2019-04-10T00:36:00.284Z,11.31
2019-04-10T00:36:06.165Z,11.32
2019-04-10T00:36:14.875Z,11.31
2019-04-10T00:36:21.082Z,11.32
2019-04-10T00:36:26.830Z,11.31
2019-04-10T00:36:31.841Z,11.31
2019-04-10T00:36:38.097Z,11.31
2019-04-10T00:36:44.365Z,11.32
2019-04-10T00:36:49.832Z,11.31
2019-04-10T00:36:56.247Z,11.32
2019-04-10T00:37:02.531Z,11.31
2019-04-10T00:37:26.661Z,11.31
2019-04-10T00:37:38.094Z,11.31
2019-04-10T00:37:43.629Z,11.31
2019-04-10T00:37:49.190Z,11.31
2019-04-10T00:37:55.520Z,11.31
2019-04-10T00:38:02.482Z,11.31
2019-04-10T00:38:09.254Z,11.31
2019-04-10T00:38:14.382Z,11.3
2019-04-10T00:38:20.566Z,11.32
2019-04-10T00:38:26.852Z,11.32
2019-04-10T00:38:32.305Z,11.31
2019-04-10T00:38:37.938Z,11.31
2019-04-10T00:38:44.165Z,11.32
2019-04-10T00:38:50.354Z,11.31
2019-04-10T00:38:55.880Z,11.31
2019-04-10T00:39:00.936Z,11.32
2019-04-10T00:39:07.194Z,11.32
2019-04-10T00:39:13.379Z,11.32
2019-04-10T00:39:18.816Z,11.31
2019-04-10T00:39:24.558Z,11.32
2019-04-10T00:39:31.376Z,11.31
2019-04-10T00:39:37.675Z,11.32
2019-04-10T00:39:43.134Z,11.31
2019-04-10T00:39:48.762Z,11.31
2019-04-10T00:39:55.022Z,11.31
2019-04-10T00:40:01.210Z,11.31
2019-04-10T00:40:06.875Z,11.31
2019-04-10T00:40:12.443Z,11.31
2019-04-10T00:40:18.052Z,11.31
2019-04-10T00:40:24.355Z,11.31
2019-04-10T00:40:29.872Z,11.3
2019-04-10T00:40:35.970Z,11.3
2019-04-10T00:40:41.564Z,11.3
2019-04-10T00:40:47.834Z,11.3
2019-04-10T00:40:53.541Z,11.3
2019-04-10T00:41:00.365Z,11.32
2019-04-10T00:41:06.725Z,11.3
2019-04-10T00:41:12.862Z,11.31
2019-04-10T00:41:18.575Z,11.3
2019-04-10T00:41:24.723Z,11.3
2019-04-10T00:41:30.272Z,11.31
2019-04-10T00:41:36.486Z,11.31
2019-04-10T00:41:42.185Z,11.3
2019-04-10T00:41:49.109Z,11.31
2019-04-10T00:41:54.661Z,11.31
2019-04-10T00:42:00.857Z,11.3
2019-04-10T00:42:06.483Z,11.31
2019-04-10T00:42:12.614Z,11.31
2019-04-10T00:42:17.607Z,11.3
2019-04-10T00:42:23.841Z,11.31
2019-04-10T00:42:32.762Z,11.31
2019-04-10T00:42:38.476Z,11.3
2019-04-10T00:42:44.010Z,11.3
2019-04-10T00:42:50.283Z,11.3
2019-04-10T00:43:00.257Z,11.3
2019-04-10T00:43:05.208Z,11.31
2019-04-10T00:43:12.741Z,11.3
2019-04-10T00:43:19.707Z,11.3
2019-04-10T00:43:25.394Z,11.31
2019-04-10T00:43:30.807Z,11.31
2019-04-10T00:43:37.098Z,11.3
2019-04-10T00:43:44.902Z,11.3
2019-04-10T00:43:51.717Z,11.3
2019-04-10T00:43:58.050Z,11.3
2019-04-10T00:44:04.344Z,11.3
2019-04-10T00:44:11.867Z,11.32
2019-04-10T00:44:18.163Z,11.3
2019-04-10T00:44:24.517Z,11.3
2019-04-10T00:44:31.981Z,11.31
2019-04-10T00:44:37.498Z,11.3
2019-04-10T00:44:42.591Z,11.31
2019-04-10T00:44:48.806Z,11.31
2019-04-10T00:44:54.983Z,11.31
2019-04-10T00:45:01.996Z,11.31
2019-04-10T00:45:07.445Z,11.31
2019-04-10T00:45:14.019Z,11.31
2019-04-10T00:45:20.226Z,11.31
2019-04-10T00:45:25.878Z,11.32
2019-04-10T00:45:31.527Z,11.32
2019-04-10T00:45:37.640Z,11.32
2019-04-10T00:45:43.969Z,11.32
2019-04-10T00:45:50.172Z,11.32
2019-04-10T00:45:55.810Z,11.32
2019-04-10T00:46:02.006Z,11.32
2019-04-10T00:46:08.858Z,11.32
2019-04-10T00:46:14.414Z,11.32
2019-04-10T00:46:20.058Z,11.32
2019-04-10T00:46:27.009Z,11.32
2019-04-10T00:46:33.281Z,11.32
2019-04-10T00:46:40.073Z,11.32
2019-04-10T00:46:45.132Z,11.32
2019-04-10T00:46:52.770Z,11.32
2019-04-10T00:46:59.691Z,11.33
2019-04-10T00:47:05.229Z,11.33
2019-04-10T00:47:10.822Z,11.33
2019-04-10T00:47:17.016Z,11.33
2019-04-10T00:47:23.231Z,11.33
2019-04-10T00:47:28.752Z,11.33
2019-04-10T00:47:33.720Z,11.34
2019-04-10T00:47:41.316Z,11.33
2019-04-10T00:47:47.706Z,11.33
2019-04-10T00:47:53.929Z,11.34
2019-04-10T00:47:59.538Z,11.34
2019-04-10T00:48:06.567Z,11.33
2019-04-10T00:48:12.726Z,11.34
2019-04-10T00:48:18.234Z,11.34
2019-04-10T00:48:23.929Z,11.33
2019-04-10T00:48:30.821Z,11.34
2019-04-10T00:48:37.023Z,11.33
2019-04-10T00:48:42.543Z,11.34
2019-04-10T00:48:48.134Z,11.34
2019-04-10T00:48:54.511Z,11.34
2019-04-10T00:49:01.383Z,11.33
2019-04-10T00:49:07.150Z,11.34
2019-04-10T00:49:12.199Z,11.34
2019-04-10T00:49:18.383Z,11.34
2019-04-10T00:49:24.700Z,11.34
2019-04-10T00:49:30.144Z,11.35
2019-04-10T00:49:35.769Z,11.34
2019-04-10T00:49:41.926Z,11.34
2019-04-10T00:49:48.205Z,11.34
2019-04-10T00:49:53.653Z,11.34
2019-04-10T00:49:59.407Z,11.34
2019-04-10T00:50:06.399Z,11.34
2019-04-10T00:50:12.598Z,11.34
2019-04-10T00:50:18.163Z,11.34
2019-04-10T00:50:23.830Z,11.34
2019-04-10T00:50:29.417Z,11.34
2019-04-10T00:50:35.541Z,11.34
2019-04-10T00:50:41.162Z,11.34
2019-04-10T00:50:48.035Z,11.34
2019-04-10T00:50:53.708Z,11.34
2019-04-10T00:50:59.997Z,11.34
2019-04-10T00:51:06.683Z,11.34
2019-04-10T00:51:12.378Z,11.34
2019-04-10T00:51:17.977Z,11.34
2019-04-10T00:51:24.260Z,11.33
2019-04-10T00:51:29.790Z,11.34
2019-04-10T00:51:35.964Z,11.35
2019-04-10T00:51:41.586Z,11.34
2019-04-10T00:51:48.557Z,11.34
2019-04-10T00:51:54.220Z,11.35
2019-04-10T00:52:00.987Z,11.34
2019-04-10T00:52:06.758Z,11.34
2019-04-10T00:52:12.859Z,11.34
2019-04-10T00:52:18.544Z,11.35
2019-04-10T00:52:25.021Z,11.34
2019-04-10T00:52:31.117Z,11.35
2019-04-10T00:52:37.317Z,11.34
2019-04-10T00:52:42.866Z,11.34
2019-04-10T00:52:48.988Z,11.34
2019-04-10T00:52:54.678Z,11.34
2019-04-10T00:53:00.887Z,11.34
2019-04-10T00:53:06.578Z,11.34
2019-04-10T00:53:14.534Z,11.34
2019-04-10T00:53:21.157Z,11.34
2019-04-10T00:53:28.056Z,11.34
2019-04-10T00:53:34.904Z,11.34
2019-04-10T00:53:39.919Z,11.34
2019-04-10T00:53:47.550Z,11.33
2019-04-10T00:53:54.636Z,11.34
2019-04-10T00:54:01.435Z,11.34
2019-04-10T00:54:06.448Z,11.34
2019-04-10T00:54:12.664Z,11.33
2019-04-10T00:54:19.696Z,11.34
2019-04-10T00:54:26.509Z,11.34
2019-04-10T00:54:31.688Z,11.34
2019-04-10T00:54:37.987Z,11.34
2019-04-10T00:54:44.195Z,11.33
2019-04-10T00:54:49.721Z,11.34
2019-04-10T00:54:55.351Z,11.34
2019-04-10T00:55:01.495Z,11.33
2019-04-10T00:55:07.761Z,11.33
2019-04-10T00:55:13.261Z,11.33
2019-04-10T00:55:18.300Z,11.34
2019-04-10T00:55:24.534Z,11.35
2019-04-10T00:55:32.877Z,11.34
2019-04-10T00:55:39.757Z,11.34
2019-04-10T00:55:44.831Z,11.34
2019-04-10T00:55:52.209Z,11.34
2019-04-10T00:55:57.945Z,11.35
2019-04-10T00:56:04.747Z,11.34
2019-04-10T00:56:11.124Z,11.34
2019-04-10T00:56:17.334Z,11.35
2019-04-10T00:56:22.964Z,11.35
2019-04-10T00:56:29.111Z,11.34
2019-04-10T00:56:34.791Z,11.34
2019-04-10T00:56:40.904Z,11.34
2019-04-10T00:56:49.266Z,11.34
2019-04-10T00:56:54.987Z,11.34
2019-04-10T00:57:01.040Z,11.34
2019-04-10T00:57:07.357Z,11.34
2019-04-10T00:57:13.508Z,11.34
2019-04-10T00:57:19.223Z,11.34
2019-04-10T00:57:26.148Z,11.34
2019-04-10T00:57:32.388Z,11.33
2019-04-10T00:57:37.951Z,11.34
2019-04-10T00:57:43.563Z,11.33
2019-04-10T00:57:49.774Z,11.34
2019-04-10T00:57:58.087Z,11.33
2019-04-10T00:58:03.656Z,11.34
2019-04-10T00:58:09.951Z,11.34
2019-04-10T00:58:16.217Z,11.34
2019-04-10T00:58:23.219Z,11.34
2019-04-10T00:58:30.156Z,11.34
2019-04-10T00:58:36.007Z,11.33
2019-04-10T00:58:43.691Z,11.33
2019-04-10T00:58:51.178Z,11.34
2019-04-10T00:58:57.149Z,11.34
2019-04-10T00:59:03.795Z,11.34
2019-04-10T00:59:12.110Z,11.35
2019-04-10T00:59:17.785Z,11.34
2019-04-10T00:59:22.839Z,11.35
2019-04-10T00:59:28.942Z,11.34
2019-04-10T00:59:35.211Z,11.35
2019-04-10T00:59:40.786Z,11.35
2019-04-10T00:59:46.385Z,11.34
2019-04-10T00:59:52.562Z,11.34
2019-04-10T00:59:59.540Z,11.34
2019-04-10T01:00:06.471Z,11.33
2019-04-10T01:00:11.515Z,11.34
2019-04-10T01:00:17.686Z,11.34
2019-04-10T01:00:26.280Z,11.34
2019-04-10T01:00:32.865Z,11.34
2019-04-10T01:00:41.910Z,11.34
2019-04-10T01:00:51.805Z,11.33
2019-04-10T01:00:57.946Z,11.34
2019-04-10T01:01:03.406Z,11.33
2019-04-10T01:01:11.792Z,11.33
2019-04-10T01:01:17.372Z,11.34
2019-04-10T01:01:23.616Z,11.33
2019-04-10T01:01:29.824Z,11.34
2019-04-10T01:01:36.109Z,11.34
2019-04-10T01:01:43.689Z,11.33
2019-04-10T01:01:49.310Z,11.33
2019-04-10T01:01:55.032Z,11.33
2019-04-10T01:02:01.117Z,11.33
2019-04-10T01:02:06.794Z,11.33
2019-04-10T01:02:12.948Z,11.33
2019-04-10T01:02:18.554Z,11.33
2019-04-10T01:02:24.788Z,11.33
2019-04-10T01:02:30.525Z,11.33
2019-04-10T01:02:37.332Z,11.33
2019-04-10T01:02:42.923Z,11.34
2019-04-10T01:02:49.136Z,11.33
2019-04-10T01:02:55.499Z,11.33
2019-04-10T01:03:01.626Z,11.33
2019-04-10T01:03:07.370Z,11.33
2019-04-10T01:03:14.194Z,11.33
2019-04-10T01:03:21.750Z,11.33
2019-04-10T01:03:28.169Z,11.33
2019-04-10T01:03:36.597Z,11.32
2019-04-10T01:03:46.616Z,11.33
2019-04-10T01:03:56.353Z,11.33
2019-04-10T01:04:04.359Z,11.33
2019-04-10T01:04:12.348Z,11.33
2019-04-10T01:04:18.165Z,11.33
2019-04-10T01:04:24.521Z,11.33
2019-04-10T01:04:31.385Z,11.32
2019-04-10T01:04:36.923Z,11.33
2019-04-10T01:04:43.259Z,11.33
2019-04-10T01:04:49.586Z,11.33
2019-04-10T01:04:55.793Z,11.33
2019-04-10T01:05:01.252Z,11.33
2019-04-10T01:05:07.586Z,11.32
2019-04-10T01:05:13.881Z,11.32
2019-04-10T01:05:20.130Z,11.32
2019-04-10T01:05:25.626Z,11.32
2019-04-10T01:05:31.120Z,11.32
2019-04-10T01:05:37.614Z,11.31
2019-04-10T01:05:44.499Z,11.32
2019-04-10T01:05:49.929Z,11.31
2019-04-10T01:05:55.463Z,11.3
2019-04-10T01:06:01.752Z,11.31
2019-04-10T01:06:08.042Z,11.31
2019-04-10T01:06:13.631Z,11.3
2019-04-10T01:06:19.866Z,11.3
2019-04-10T01:06:26.603Z,11.3
2019-04-10T01:06:33.777Z,11.31
2019-04-10T01:06:39.878Z,11.3
2019-04-10T01:06:44.945Z,11.3
2019-04-10T01:06:51.214Z,11.3
2019-04-10T01:06:57.464Z,11.3
2019-04-10T01:07:02.991Z,11.3
2019-04-10T01:07:08.605Z,11.3
2019-04-10T01:07:14.766Z,11.3
2019-04-10T01:07:40.077Z,11.3
2019-04-10T01:07:51.804Z,11.3
2019-04-10T01:07:57.854Z,11.3
2019-04-10T01:08:05.142Z,11.3
2019-04-10T01:08:13.427Z,11.29
2019-04-10T01:08:18.905Z,11.29
2019-04-10T01:08:24.492Z,11.28
2019-04-10T01:08:30.721Z,11.29
2019-04-10T01:08:37.035Z,11.28
2019-04-10T01:08:44.614Z,11.28
2019-04-10T01:08:49.684Z,11.28
2019-04-10T01:08:55.903Z,11.28
2019-04-10T01:09:02.279Z,11.27
2019-04-10T01:09:08.960Z,11.27
2019-04-10T01:09:13.953Z,11.26
2019-04-10T01:09:20.232Z,11.27
2019-04-10T01:09:26.359Z,11.27
2019-04-10T01:09:31.883Z,11.27
2019-04-10T01:09:37.498Z,11.26
2019-04-10T01:09:43.741Z,11.26
2019-04-10T01:09:49.939Z,11.26
2019-04-10T01:09:55.558Z,11.25
2019-04-10T01:10:00.527Z,11.26
2019-04-10T01:10:08.141Z,11.26
2019-04-10T01:10:15.058Z,11.25
2019-04-10T01:10:20.633Z,11.25
2019-04-10T01:10:26.240Z,11.26
2019-04-10T01:10:33.163Z,11.25
2019-04-10T01:10:40.159Z,11.25
2019-04-10T01:10:46.275Z,11.24
2019-04-10T01:10:51.247Z,11.24
2019-04-10T01:10:57.596Z,11.24
2019-04-10T01:11:03.810Z,11.23
2019-04-10T01:11:10.665Z,11.24
2019-04-10T01:11:17.001Z,11.24
2019-04-10T01:11:23.945Z,11.23
2019-04-10T01:11:30.568Z,11.24
2019-04-10T01:11:36.412Z,11.23
2019-04-10T01:11:42.151Z,11.23
2019-04-10T01:11:49.728Z,11.23
2019-04-10T01:11:55.984Z,11.23
2019-04-10T01:12:01.527Z,11.23
2019-04-10T01:12:08.425Z,11.23
2019-04-10T01:12:14.647Z,11.23
2019-04-10T01:12:20.224Z,11.23
2019-04-10T01:12:25.863Z,11.22
2019-04-10T01:12:32.090Z,11.22
2019-04-10T01:12:38.352Z,11.22
2019-04-10T01:12:44.652Z,11.23
2019-04-10T01:12:50.365Z,11.22
2019-04-10T01:12:56.540Z,11.22
2019-04-10T01:13:03.501Z,11.21
2019-04-10T01:13:10.332Z,11.21
2019-04-10T01:13:15.351Z,11.21
2019-04-10T01:13:21.626Z,11.21
2019-04-10T01:13:27.861Z,11.21
2019-04-10T01:13:34.649Z,11.2
2019-04-10T01:13:39.810Z,11.21
2019-04-10T01:13:47.084Z,11.2
2019-04-10T01:13:55.192Z,11.19
2019-04-10T01:14:02.333Z,11.19
2019-04-10T01:14:08.290Z,11.2
2019-04-10T01:14:14.458Z,11.2
2019-04-10T01:14:19.983Z,11.2
2019-04-10T01:14:26.232Z,11.19
2019-04-10T01:14:31.776Z,11.19
2019-04-10T01:14:38.038Z,11.19
2019-04-10T01:14:43.651Z,11.18
2019-04-10T01:14:49.780Z,11.18
2019-04-10T01:14:54.776Z,11.19
2019-04-10T01:15:01.010Z,11.18
2019-04-10T01:15:09.947Z,11.18
2019-04-10T01:15:15.654Z,11.18
2019-04-10T01:15:21.181Z,11.18
2019-04-10T01:15:27.437Z,11.18
2019-04-10T01:15:33.043Z,11.18
2019-04-10T01:15:40.247Z,11.17
2019-04-10T01:15:46.842Z,11.17
2019-04-10T01:15:53.848Z,11.18
2019-04-10T01:15:59.391Z,11.17
2019-04-10T01:16:05.044Z,11.18
2019-04-10T01:16:13.218Z,11.18
2019-04-10T01:16:21.054Z,11.17
2019-04-10T01:16:27.169Z,11.17
2019-04-10T01:16:32.105Z,11.17
2019-04-10T01:16:38.486Z,11.17
2019-04-10T01:16:44.718Z,11.17
2019-04-10T01:16:51.491Z,11.15
2019-04-10T01:16:56.508Z,11.16
2019-04-10T01:17:03.809Z,11.17
2019-04-10T01:17:09.818Z,11.16
2019-04-10T01:17:16.613Z,11.16
2019-04-10T01:17:20.891Z,11.17
2019-04-10T01:17:27.073Z,11.16
2019-04-10T01:17:35.409Z,11.16
2019-04-10T01:17:40.980Z,11.16
2019-04-10T01:17:47.187Z,11.15
2019-04-10T01:17:53.583Z,11.16
2019-04-10T01:17:59.769Z,11.16
2019-04-10T01:18:05.357Z,11.16
2019-04-10T01:18:11.647Z,11.16
2019-04-10T01:18:17.918Z,11.16
2019-04-10T01:18:24.128Z,11.16
2019-04-10T01:18:29.719Z,11.16
2019-04-10T01:18:35.156Z,11.14
2019-04-10T01:18:43.536Z,11.15
2019-04-10T01:18:51.161Z,11.15
2019-04-10T01:18:56.839Z,11.14
2019-04-10T01:19:03.683Z,11.15
2019-04-10T01:19:10.669Z,11.14
2019-04-10T01:19:17.526Z,11.14
2019-04-10T01:19:22.549Z,11.14
2019-04-10T01:19:30.058Z,11.13
2019-04-10T01:19:37.057Z,11.13
2019-04-10T01:19:44.410Z,11.13
2019-04-10T01:19:50.260Z,11.13
2019-04-10T01:19:57.214Z,11.13
2019-04-10T01:20:02.863Z,11.12
2019-04-10T01:20:09.119Z,11.13
2019-04-10T01:20:14.071Z,11.12
2019-04-10T01:20:21.671Z,11.13
2019-04-10T01:20:27.329Z,11.13
2019-04-10T01:20:33.362Z,11.12
2019-04-10T01:20:38.521Z,11.12
2019-04-10T01:20:44.621Z,11.13
2019-04-10T01:20:50.920Z,11.12
2019-04-10T01:20:56.453Z,11.11
2019-04-10T01:21:01.979Z,11.11
2019-04-10T01:21:08.284Z,11.12
2019-04-10T01:21:15.213Z,11.11
2019-04-10T01:21:22.064Z,11.11
2019-04-10T01:21:27.096Z,11.12
2019-04-10T01:21:33.270Z,11.11
2019-04-10T01:21:39.525Z,11.11
2019-04-10T01:21:45.026Z,11.12
2019-04-10T01:21:51.312Z,11.11
2019-04-10T01:21:57.730Z,11.11
2019-04-10T01:22:03.850Z,11.11
2019-04-10T01:22:09.369Z,11.11
2019-04-10T01:22:14.896Z,11.1
2019-04-10T01:22:21.223Z,11.11
2019-04-10T01:22:28.248Z,11.1
2019-04-10T01:22:35.039Z,11.1
2019-04-10T01:22:39.993Z,11.11
2019-04-10T01:22:47.669Z,11.1
2019-04-10T01:22:55.154Z,11.1
2019-04-10T01:23:01.245Z,11.09
2019-04-10T01:23:08.563Z,11.09
2019-04-10T01:23:14.723Z,11.09